sensor_id;sensor_type;location;lat;lon;timestamp;P1;durP1;ratioP1;P2;durP2;ratioP2
73168;SDS011;61379;59.732;30.468;2022-10-16T00:01:05;15.15;;;11.45;;
73168;SDS011;61379;59.732;30.468;2022-10-16T00:03:32;11.75;;;10.50;;
73168;SDS011;61379;59.732;30.468;2022-10-16T00:06:00;13.15;;;10.98;;
73168;SDS011;61379;59.732;30.468;2022-10-16T00:08:26;13.68;;;10.80;;
73168;SDS011;61379;59.732;30.468;2022-10-16T00:10:58;12.65;;;10.57;;
73168;SDS011;61379;59.732;30.468;2022-10-16T00:13:25;14.75;;;10.77;;
73168;SDS011;61379;59.732;30.468;2022-10-16T00:15:54;14.93;;;11.82;;
73168;SDS011;61379;59.732;30.468;2022-10-16T00:18:22;12.75;;;11.48;;
73168;SDS011;61379;59.732;30.468;2022-10-16T00:20:49;13.30;;;11.13;;
73168;SDS011;61379;59.732;30.468;2022-10-16T00:23:34;12.30;;;10.95;;
73168;SDS011;61379;59.732;30.468;2022-10-16T00:26:02;12.02;;;10.82;;
73168;SDS011;61379;59.732;30.468;2022-10-16T00:28:29;11.48;;;9.98;;
73168;SDS011;61379;59.732;30.468;2022-10-16T00:30:56;13.60;;;9.93;;
73168;SDS011;61379;59.732;30.468;2022-10-16T00:33:24;15.45;;;10.95;;
73168;SDS011;61379;59.732;30.468;2022-10-16T00:35:50;14.95;;;12.18;;
73168;SDS011;61379;59.732;30.468;2022-10-16T00:38:17;11.75;;;10.57;;
73168;SDS011;61379;59.732;30.468;2022-10-16T00:40:44;12.80;;;11.30;;
73168;SDS011;61379;59.732;30.468;2022-10-16T00:43:14;14.43;;;10.38;;
73168;SDS011;61379;59.732;30.468;2022-10-16T00:45:58;12.02;;;10.75;;
73168;SDS011;61379;59.732;30.468;2022-10-16T00:48:26;12.32;;;10.75;;
73168;SDS011;61379;59.732;30.468;2022-10-16T00:50:53;13.32;;;11.52;;
73168;SDS011;61379;59.732;30.468;2022-10-16T00:53:20;11.57;;;9.82;;
73168;SDS011;61379;59.732;30.468;2022-10-16T00:55:47;14.32;;;11.27;;
73168;SDS011;61379;59.732;30.468;2022-10-16T00:58:14;14.10;;;11.77;;
73168;SDS011;61379;59.732;30.468;2022-10-16T01:00:40;13.13;;;9.95;;
73168;SDS011;61379;59.732;30.468;2022-10-16T01:03:21;13.70;;;10.05;;
73168;SDS011;61379;59.732;30.468;2022-10-16T01:05:51;16.17;;;11.57;;
73168;SDS011;61379;59.732;30.468;2022-10-16T01:08:21;12.85;;;10.52;;
73168;SDS011;61379;59.732;30.468;2022-10-16T01:10:51;13.40;;;10.98;;
73168;SDS011;61379;59.732;30.468;2022-10-16T01:13:21;15.80;;;11.00;;
73168;SDS011;61379;59.732;30.468;2022-10-16T01:15:52;16.15;;;11.27;;
73168;SDS011;61379;59.732;30.468;2022-10-16T01:18:22;12.38;;;10.77;;
73168;SDS011;61379;59.732;30.468;2022-10-16T01:20:54;15.70;;;11.75;;
73168;SDS011;61379;59.732;30.468;2022-10-16T01:23:29;13.13;;;10.68;;
73168;SDS011;61379;59.732;30.468;2022-10-16T01:28:47;14.18;;;10.98;;
73168;SDS011;61379;59.732;30.468;2022-10-16T01:31:17;13.70;;;10.68;;
73168;SDS011;61379;59.732;30.468;2022-10-16T01:33:45;11.95;;;9.70;;
73168;SDS011;61379;59.732;30.468;2022-10-16T01:36:13;12.57;;;10.25;;
73168;SDS011;61379;59.732;30.468;2022-10-16T01:38:40;11.95;;;10.05;;
73168;SDS011;61379;59.732;30.468;2022-10-16T01:41:09;13.52;;;10.20;;
73168;SDS011;61379;59.732;30.468;2022-10-16T01:43:36;14.80;;;10.20;;
73168;SDS011;61379;59.732;30.468;2022-10-16T01:46:06;9.88;;;8.68;;
73168;SDS011;61379;59.732;30.468;2022-10-16T01:48:34;11.07;;;9.82;;
73168;SDS011;61379;59.732;30.468;2022-10-16T01:51:04;14.13;;;11.20;;
73168;SDS011;61379;59.732;30.468;2022-10-16T01:53:31;14.40;;;10.98;;
73168;SDS011;61379;59.732;30.468;2022-10-16T01:55:58;13.52;;;10.70;;
73168;SDS011;61379;59.732;30.468;2022-10-16T01:58:26;12.95;;;11.55;;
73168;SDS011;61379;59.732;30.468;2022-10-16T02:00:56;10.48;;;9.55;;
73168;SDS011;61379;59.732;30.468;2022-10-16T02:03:24;13.48;;;9.93;;
73168;SDS011;61379;59.732;30.468;2022-10-16T02:05:51;11.65;;;10.25;;
73168;SDS011;61379;59.732;30.468;2022-10-16T02:08:19;12.18;;;10.20;;
73168;SDS011;61379;59.732;30.468;2022-10-16T02:10:47;11.13;;;10.02;;
73168;SDS011;61379;59.732;30.468;2022-10-16T02:13:15;12.02;;;10.45;;
73168;SDS011;61379;59.732;30.468;2022-10-16T02:16:03;15.02;;;11.10;;
73168;SDS011;61379;59.732;30.468;2022-10-16T02:18:31;13.32;;;11.52;;
73168;SDS011;61379;59.732;30.468;2022-10-16T02:20:59;14.48;;;11.15;;
73168;SDS011;61379;59.732;30.468;2022-10-16T02:23:28;13.52;;;9.68;;
73168;SDS011;61379;59.732;30.468;2022-10-16T02:25:57;14.05;;;12.05;;
73168;SDS011;61379;59.732;30.468;2022-10-16T02:28:26;11.15;;;10.10;;
73168;SDS011;61379;59.732;30.468;2022-10-16T02:30:55;14.00;;;11.18;;
73168;SDS011;61379;59.732;30.468;2022-10-16T02:33:23;13.88;;;11.45;;
73168;SDS011;61379;59.732;30.468;2022-10-16T02:35:52;14.55;;;11.10;;
73168;SDS011;61379;59.732;30.468;2022-10-16T02:38:19;16.88;;;11.48;;
73168;SDS011;61379;59.732;30.468;2022-10-16T02:40:46;13.45;;;11.88;;
73168;SDS011;61379;59.732;30.468;2022-10-16T02:43:13;13.90;;;10.93;;
73168;SDS011;61379;59.732;30.468;2022-10-16T02:45:40;12.75;;;11.10;;
73168;SDS011;61379;59.732;30.468;2022-10-16T02:48:06;13.45;;;11.18;;
73168;SDS011;61379;59.732;30.468;2022-10-16T02:50:33;10.23;;;9.38;;
73168;SDS011;61379;59.732;30.468;2022-10-16T02:53:01;15.88;;;11.38;;
73168;SDS011;61379;59.732;30.468;2022-10-16T02:55:28;14.65;;;10.75;;
73168;SDS011;61379;59.732;30.468;2022-10-16T02:57:54;13.15;;;10.73;;
73168;SDS011;61379;59.732;30.468;2022-10-16T03:00:21;12.35;;;11.10;;
73168;SDS011;61379;59.732;30.468;2022-10-16T03:02:48;12.98;;;11.55;;
73168;SDS011;61379;59.732;30.468;2022-10-16T03:05:15;12.40;;;10.45;;
73168;SDS011;61379;59.732;30.468;2022-10-16T03:07:42;12.85;;;11.02;;
73168;SDS011;61379;59.732;30.468;2022-10-16T03:10:10;13.27;;;11.07;;
73168;SDS011;61379;59.732;30.468;2022-10-16T03:12:37;14.85;;;11.15;;
73168;SDS011;61379;59.732;30.468;2022-10-16T03:15:04;12.85;;;11.13;;
73168;SDS011;61379;59.732;30.468;2022-10-16T03:17:32;15.77;;;10.95;;
73168;SDS011;61379;59.732;30.468;2022-10-16T03:19:58;16.13;;;11.27;;
73168;SDS011;61379;59.732;30.468;2022-10-16T03:22:25;14.85;;;11.05;;
73168;SDS011;61379;59.732;30.468;2022-10-16T03:24:52;13.27;;;11.27;;
73168;SDS011;61379;59.732;30.468;2022-10-16T03:27:20;13.10;;;10.98;;
73168;SDS011;61379;59.732;30.468;2022-10-16T03:29:46;11.77;;;10.43;;
73168;SDS011;61379;59.732;30.468;2022-10-16T03:32:13;9.25;;;8.25;;
73168;SDS011;61379;59.732;30.468;2022-10-16T03:34:40;16.85;;;12.05;;
73168;SDS011;61379;59.732;30.468;2022-10-16T03:37:06;15.65;;;11.23;;
73168;SDS011;61379;59.732;30.468;2022-10-16T03:39:33;12.88;;;11.05;;
73168;SDS011;61379;59.732;30.468;2022-10-16T03:42:00;13.98;;;10.48;;
73168;SDS011;61379;59.732;30.468;2022-10-16T03:44:28;13.07;;;11.27;;
73168;SDS011;61379;59.732;30.468;2022-10-16T03:46:54;10.85;;;9.80;;
73168;SDS011;61379;59.732;30.468;2022-10-16T03:49:21;12.95;;;10.27;;
73168;SDS011;61379;59.732;30.468;2022-10-16T03:51:48;14.57;;;11.40;;
73168;SDS011;61379;59.732;30.468;2022-10-16T03:54:14;12.80;;;10.80;;
73168;SDS011;61379;59.732;30.468;2022-10-16T03:56:41;12.43;;;11.18;;
73168;SDS011;61379;59.732;30.468;2022-10-16T03:59:08;10.93;;;9.23;;
73168;SDS011;61379;59.732;30.468;2022-10-16T04:01:36;12.50;;;9.95;;
73168;SDS011;61379;59.732;30.468;2022-10-16T04:04:02;13.25;;;11.30;;
73168;SDS011;61379;59.732;30.468;2022-10-16T04:06:29;17.88;;;12.45;;
73168;SDS011;61379;59.732;30.468;2022-10-16T04:08:56;13.27;;;11.60;;
73168;SDS011;61379;59.732;30.468;2022-10-16T04:11:22;12.43;;;11.15;;
73168;SDS011;61379;59.732;30.468;2022-10-16T04:13:49;14.45;;;12.07;;
73168;SDS011;61379;59.732;30.468;2022-10-16T04:16:16;13.23;;;11.85;;
73168;SDS011;61379;59.732;30.468;2022-10-16T04:18:44;11.68;;;10.13;;
73168;SDS011;61379;59.732;30.468;2022-10-16T04:21:10;13.07;;;10.20;;
73168;SDS011;61379;59.732;30.468;2022-10-16T04:23:37;15.50;;;11.85;;
73168;SDS011;61379;59.732;30.468;2022-10-16T04:26:04;12.30;;;10.63;;
73168;SDS011;61379;59.732;30.468;2022-10-16T04:28:30;12.90;;;10.65;;
73168;SDS011;61379;59.732;30.468;2022-10-16T04:30:57;12.55;;;11.25;;
73168;SDS011;61379;59.732;30.468;2022-10-16T04:33:24;12.77;;;11.68;;
73168;SDS011;61379;59.732;30.468;2022-10-16T04:35:57;13.20;;;11.82;;
73168;SDS011;61379;59.732;30.468;2022-10-16T04:38:23;17.33;;;11.32;;
73168;SDS011;61379;59.732;30.468;2022-10-16T04:40:50;13.50;;;9.85;;
73168;SDS011;61379;59.732;30.468;2022-10-16T04:43:17;15.05;;;11.38;;
73168;SDS011;61379;59.732;30.468;2022-10-16T04:45:43;10.85;;;9.68;;
73168;SDS011;61379;59.732;30.468;2022-10-16T04:48:10;12.32;;;10.85;;
73168;SDS011;61379;59.732;30.468;2022-10-16T04:50:37;12.55;;;10.88;;
73168;SDS011;61379;59.732;30.468;2022-10-16T04:53:05;11.45;;;10.35;;
73168;SDS011;61379;59.732;30.468;2022-10-16T04:55:32;12.73;;;9.40;;
73168;SDS011;61379;59.732;30.468;2022-10-16T04:57:59;13.20;;;11.85;;
73168;SDS011;61379;59.732;30.468;2022-10-16T05:00:26;12.05;;;10.60;;
73168;SDS011;61379;59.732;30.468;2022-10-16T05:02:52;12.23;;;9.50;;
73168;SDS011;61379;59.732;30.468;2022-10-16T05:05:19;12.32;;;9.90;;
73168;SDS011;61379;59.732;30.468;2022-10-16T05:07:46;18.00;;;12.07;;
73168;SDS011;61379;59.732;30.468;2022-10-16T05:10:14;13.00;;;11.68;;
73168;SDS011;61379;59.732;30.468;2022-10-16T05:12:41;12.05;;;11.07;;
73168;SDS011;61379;59.732;30.468;2022-10-16T05:15:08;13.00;;;11.70;;
73168;SDS011;61379;59.732;30.468;2022-10-16T05:17:34;12.90;;;10.07;;
73168;SDS011;61379;59.732;30.468;2022-10-16T05:20:01;10.65;;;8.40;;
73168;SDS011;61379;59.732;30.468;2022-10-16T05:22:28;10.05;;;9.13;;
73168;SDS011;61379;59.732;30.468;2022-10-16T05:24:55;11.00;;;9.90;;
73168;SDS011;61379;59.732;30.468;2022-10-16T05:27:23;13.30;;;11.32;;
73168;SDS011;61379;59.732;30.468;2022-10-16T05:29:50;14.88;;;11.02;;
73168;SDS011;61379;59.732;30.468;2022-10-16T05:32:17;12.45;;;10.23;;
73168;SDS011;61379;59.732;30.468;2022-10-16T05:34:44;10.43;;;9.27;;
73168;SDS011;61379;59.732;30.468;2022-10-16T05:37:11;11.75;;;9.95;;
73168;SDS011;61379;59.732;30.468;2022-10-16T05:39:38;14.55;;;11.43;;
73168;SDS011;61379;59.732;30.468;2022-10-16T05:42:05;13.35;;;11.95;;
73168;SDS011;61379;59.732;30.468;2022-10-16T05:44:33;14.18;;;12.75;;
73168;SDS011;61379;59.732;30.468;2022-10-16T05:46:59;12.75;;;11.45;;
73168;SDS011;61379;59.732;30.468;2022-10-16T05:49:26;13.35;;;10.38;;
73168;SDS011;61379;59.732;30.468;2022-10-16T05:51:53;10.98;;;9.43;;
73168;SDS011;61379;59.732;30.468;2022-10-16T05:54:19;8.90;;;8.10;;
73168;SDS011;61379;59.732;30.468;2022-10-16T05:56:46;8.98;;;8.15;;
73168;SDS011;61379;59.732;30.468;2022-10-16T05:59:13;12.20;;;9.85;;
73168;SDS011;61379;59.732;30.468;2022-10-16T06:01:41;10.88;;;9.88;;
73168;SDS011;61379;59.732;30.468;2022-10-16T06:04:08;13.00;;;11.13;;
73168;SDS011;61379;59.732;30.468;2022-10-16T06:06:34;12.25;;;10.40;;
73168;SDS011;61379;59.732;30.468;2022-10-16T06:09:02;10.82;;;9.00;;
73168;SDS011;61379;59.732;30.468;2022-10-16T06:11:30;11.13;;;9.48;;
73168;SDS011;61379;59.732;30.468;2022-10-16T06:13:57;12.60;;;10.00;;
73168;SDS011;61379;59.732;30.468;2022-10-16T06:16:27;13.70;;;9.40;;
73168;SDS011;61379;59.732;30.468;2022-10-16T06:18:55;9.68;;;8.68;;
73168;SDS011;61379;59.732;30.468;2022-10-16T06:21:22;10.48;;;8.98;;
73168;SDS011;61379;59.732;30.468;2022-10-16T06:23:51;14.88;;;11.32;;
73168;SDS011;61379;59.732;30.468;2022-10-16T06:26:18;12.68;;;11.27;;
73168;SDS011;61379;59.732;30.468;2022-10-16T06:28:46;10.30;;;9.40;;
73168;SDS011;61379;59.732;30.468;2022-10-16T06:31:13;11.48;;;10.32;;
73168;SDS011;61379;59.732;30.468;2022-10-16T06:33:39;13.80;;;11.88;;
73168;SDS011;61379;59.732;30.468;2022-10-16T06:36:09;11.27;;;10.10;;
73168;SDS011;61379;59.732;30.468;2022-10-16T06:38:36;12.00;;;10.10;;
73168;SDS011;61379;59.732;30.468;2022-10-16T06:41:03;12.30;;;10.57;;
73168;SDS011;61379;59.732;30.468;2022-10-16T06:43:30;10.27;;;8.82;;
73168;SDS011;61379;59.732;30.468;2022-10-16T06:45:58;12.73;;;10.13;;
73168;SDS011;61379;59.732;30.468;2022-10-16T06:48:25;9.80;;;8.90;;
73168;SDS011;61379;59.732;30.468;2022-10-16T06:50:56;10.57;;;9.55;;
73168;SDS011;61379;59.732;30.468;2022-10-16T06:53:25;11.60;;;9.50;;
73168;SDS011;61379;59.732;30.468;2022-10-16T06:55:52;11.07;;;9.98;;
73168;SDS011;61379;59.732;30.468;2022-10-16T06:58:18;15.70;;;11.63;;
73168;SDS011;61379;59.732;30.468;2022-10-16T07:00:45;13.52;;;10.32;;
73168;SDS011;61379;59.732;30.468;2022-10-16T07:03:12;10.95;;;9.85;;
73168;SDS011;61379;59.732;30.468;2022-10-16T07:05:39;12.73;;;11.57;;
73168;SDS011;61379;59.732;30.468;2022-10-16T07:08:05;11.57;;;10.45;;
73168;SDS011;61379;59.732;30.468;2022-10-16T07:10:34;11.30;;;8.73;;
73168;SDS011;61379;59.732;30.468;2022-10-16T07:13:01;11.05;;;9.95;;
73168;SDS011;61379;59.732;30.468;2022-10-16T07:15:28;11.90;;;10.77;;
73168;SDS011;61379;59.732;30.468;2022-10-16T07:17:55;12.07;;;10.88;;
73168;SDS011;61379;59.732;30.468;2022-10-16T07:20:21;9.65;;;8.65;;
73168;SDS011;61379;59.732;30.468;2022-10-16T07:22:48;10.50;;;9.45;;
73168;SDS011;61379;59.732;30.468;2022-10-16T07:25:15;12.15;;;9.77;;
73168;SDS011;61379;59.732;30.468;2022-10-16T07:27:43;11.75;;;10.65;;
73168;SDS011;61379;59.732;30.468;2022-10-16T07:30:10;12.95;;;10.95;;
73168;SDS011;61379;59.732;30.468;2022-10-16T07:32:36;10.43;;;8.82;;
73168;SDS011;61379;59.732;30.468;2022-10-16T07:35:03;16.27;;;10.25;;
73168;SDS011;61379;59.732;30.468;2022-10-16T07:37:30;14.25;;;10.25;;
73168;SDS011;61379;59.732;30.468;2022-10-16T07:39:57;11.95;;;9.70;;
73168;SDS011;61379;59.732;30.468;2022-10-16T07:42:23;10.32;;;9.18;;
73168;SDS011;61379;59.732;30.468;2022-10-16T07:44:52;14.43;;;9.90;;
73168;SDS011;61379;59.732;30.468;2022-10-16T07:47:18;11.48;;;9.40;;
73168;SDS011;61379;59.732;30.468;2022-10-16T07:49:45;11.95;;;9.88;;
73168;SDS011;61379;59.732;30.468;2022-10-16T07:52:12;9.95;;;9.02;;
73168;SDS011;61379;59.732;30.468;2022-10-16T07:54:39;10.50;;;9.27;;
73168;SDS011;61379;59.732;30.468;2022-10-16T07:57:05;9.95;;;8.65;;
73168;SDS011;61379;59.732;30.468;2022-10-16T07:59:32;14.27;;;10.80;;
73168;SDS011;61379;59.732;30.468;2022-10-16T08:02:00;10.02;;;8.98;;
73168;SDS011;61379;59.732;30.468;2022-10-16T08:04:27;10.30;;;9.32;;
73168;SDS011;61379;59.732;30.468;2022-10-16T08:06:53;12.07;;;9.45;;
73168;SDS011;61379;59.732;30.468;2022-10-16T08:09:20;13.35;;;9.98;;
73168;SDS011;61379;59.732;30.468;2022-10-16T08:11:47;10.57;;;9.63;;
73168;SDS011;61379;59.732;30.468;2022-10-16T08:14:13;10.20;;;9.25;;
73168;SDS011;61379;59.732;30.468;2022-10-16T08:16:40;12.00;;;10.77;;
73168;SDS011;61379;59.732;30.468;2022-10-16T08:19:08;10.50;;;9.52;;
73168;SDS011;61379;59.732;30.468;2022-10-16T08:21:35;11.80;;;10.20;;
73168;SDS011;61379;59.732;30.468;2022-10-16T08:24:01;11.27;;;10.13;;
73168;SDS011;61379;59.732;30.468;2022-10-16T08:26:28;17.80;;;9.90;;
73168;SDS011;61379;59.732;30.468;2022-10-16T08:28:55;12.13;;;10.85;;
73168;SDS011;61379;59.732;30.468;2022-10-16T08:31:22;11.55;;;10.35;;
73168;SDS011;61379;59.732;30.468;2022-10-16T08:33:49;11.75;;;10.55;;
73168;SDS011;61379;59.732;30.468;2022-10-16T08:36:17;15.85;;;10.43;;
73168;SDS011;61379;59.732;30.468;2022-10-16T08:38:46;12.95;;;9.90;;
73168;SDS011;61379;59.732;30.468;2022-10-16T08:41:17;10.48;;;9.02;;
73168;SDS011;61379;59.732;30.468;2022-10-16T08:43:56;11.40;;;10.07;;
73168;SDS011;61379;59.732;30.468;2022-10-16T08:46:31;10.73;;;9.73;;
73168;SDS011;61379;59.732;30.468;2022-10-16T08:49:00;10.43;;;9.40;;
73168;SDS011;61379;59.732;30.468;2022-10-16T08:51:31;11.95;;;10.77;;
73168;SDS011;61379;59.732;30.468;2022-10-16T08:53:58;11.57;;;10.43;;
73168;SDS011;61379;59.732;30.468;2022-10-16T08:56:25;9.65;;;8.93;;
73168;SDS011;61379;59.732;30.468;2022-10-16T08:58:52;12.23;;;10.02;;
73168;SDS011;61379;59.732;30.468;2022-10-16T09:01:21;10.38;;;9.35;;
73168;SDS011;61379;59.732;30.468;2022-10-16T09:03:55;10.05;;;8.70;;
73168;SDS011;61379;59.732;30.468;2022-10-16T09:06:37;13.35;;;11.43;;
73168;SDS011;61379;59.732;30.468;2022-10-16T09:09:09;11.45;;;10.43;;
73168;SDS011;61379;59.732;30.468;2022-10-16T09:11:42;12.05;;;10.82;;
73168;SDS011;61379;59.732;30.468;2022-10-16T09:14:15;12.00;;;8.98;;
73168;SDS011;61379;59.732;30.468;2022-10-16T09:16:46;12.70;;;10.48;;
73168;SDS011;61379;59.732;30.468;2022-10-16T09:19:16;11.25;;;10.00;;
73168;SDS011;61379;59.732;30.468;2022-10-16T09:21:48;12.27;;;8.95;;
73168;SDS011;61379;59.732;30.468;2022-10-16T09:24:17;11.05;;;10.02;;
73168;SDS011;61379;59.732;30.468;2022-10-16T09:26:43;11.40;;;9.25;;
73168;SDS011;61379;59.732;30.468;2022-10-16T09:29:11;10.23;;;9.23;;
73168;SDS011;61379;59.732;30.468;2022-10-16T09:31:37;9.90;;;8.93;;
73168;SDS011;61379;59.732;30.468;2022-10-16T09:34:04;10.65;;;9.57;;
73168;SDS011;61379;59.732;30.468;2022-10-16T09:36:35;9.55;;;8.52;;
73168;SDS011;61379;59.732;30.468;2022-10-16T09:39:06;10.13;;;9.30;;
73168;SDS011;61379;59.732;30.468;2022-10-16T09:41:34;9.07;;;7.30;;
73168;SDS011;61379;59.732;30.468;2022-10-16T09:44:01;8.90;;;8.13;;
73168;SDS011;61379;59.732;30.468;2022-10-16T09:46:29;11.50;;;9.40;;
73168;SDS011;61379;59.732;30.468;2022-10-16T09:48:57;14.85;;;10.57;;
73168;SDS011;61379;59.732;30.468;2022-10-16T09:51:25;11.00;;;9.43;;
73168;SDS011;61379;59.732;30.468;2022-10-16T09:53:54;11.80;;;9.75;;
73168;SDS011;61379;59.732;30.468;2022-10-16T09:56:23;15.02;;;9.82;;
73168;SDS011;61379;59.732;30.468;2022-10-16T09:58:50;12.55;;;10.38;;
73168;SDS011;61379;59.732;30.468;2022-10-16T10:01:17;10.88;;;8.30;;
73168;SDS011;61379;59.732;30.468;2022-10-16T10:03:45;11.05;;;10.00;;
73168;SDS011;61379;59.732;30.468;2022-10-16T10:06:16;10.10;;;8.93;;
73168;SDS011;61379;59.732;30.468;2022-10-16T10:08:54;13.85;;;10.02;;
73168;SDS011;61379;59.732;30.468;2022-10-16T10:14:17;8.70;;;7.95;;
73168;SDS011;61379;59.732;30.468;2022-10-16T10:16:45;10.85;;;7.40;;
73168;SDS011;61379;59.732;30.468;2022-10-16T10:19:13;12.90;;;8.77;;
73168;SDS011;61379;59.732;30.468;2022-10-16T10:21:40;10.65;;;7.85;;
73168;SDS011;61379;59.732;30.468;2022-10-16T10:24:09;13.55;;;7.47;;
73168;SDS011;61379;59.732;30.468;2022-10-16T10:26:36;11.00;;;8.68;;
73168;SDS011;61379;59.732;30.468;2022-10-16T10:29:04;7.57;;;6.82;;
73168;SDS011;61379;59.732;30.468;2022-10-16T10:31:36;9.30;;;8.38;;
73168;SDS011;61379;59.732;30.468;2022-10-16T10:34:05;7.28;;;6.60;;
73168;SDS011;61379;59.732;30.468;2022-10-16T10:36:38;8.75;;;7.65;;
73168;SDS011;61379;59.732;30.468;2022-10-16T10:39:06;9.43;;;8.00;;
73168;SDS011;61379;59.732;30.468;2022-10-16T10:44:21;8.00;;;7.25;;
73168;SDS011;61379;59.732;30.468;2022-10-16T10:46:56;8.95;;;7.95;;
73168;SDS011;61379;59.732;30.468;2022-10-16T10:49:30;8.68;;;7.72;;
73168;SDS011;61379;59.732;30.468;2022-10-16T10:52:03;10.23;;;8.05;;
73168;SDS011;61379;59.732;30.468;2022-10-16T10:54:35;8.85;;;7.70;;
73168;SDS011;61379;59.732;30.468;2022-10-16T10:57:07;7.82;;;6.65;;
73168;SDS011;61379;59.732;30.468;2022-10-16T10:59:51;8.30;;;7.50;;
73168;SDS011;61379;59.732;30.468;2022-10-16T11:02:21;8.73;;;7.57;;
73168;SDS011;61379;59.732;30.468;2022-10-16T11:04:54;7.72;;;6.82;;
73168;SDS011;61379;59.732;30.468;2022-10-16T11:07:25;10.77;;;7.28;;
73168;SDS011;61379;59.732;30.468;2022-10-16T11:09:53;10.43;;;8.65;;
73168;SDS011;61379;59.732;30.468;2022-10-16T11:12:21;11.23;;;7.18;;
73168;SDS011;61379;59.732;30.468;2022-10-16T11:14:51;8.88;;;7.40;;
73168;SDS011;61379;59.732;30.468;2022-10-16T11:17:25;10.65;;;7.70;;
73168;SDS011;61379;59.732;30.468;2022-10-16T11:19:54;10.93;;;8.18;;
73168;SDS011;61379;59.732;30.468;2022-10-16T11:22:22;8.98;;;7.75;;
73168;SDS011;61379;59.732;30.468;2022-10-16T11:24:51;12.23;;;8.85;;
73168;SDS011;61379;59.732;30.468;2022-10-16T11:27:20;9.57;;;8.10;;
73168;SDS011;61379;59.732;30.468;2022-10-16T11:29:49;9.23;;;7.95;;
73168;SDS011;61379;59.732;30.468;2022-10-16T11:32:20;9.85;;;8.85;;
73168;SDS011;61379;59.732;30.468;2022-10-16T11:34:49;10.52;;;9.50;;
73168;SDS011;61379;59.732;30.468;2022-10-16T11:39:43;11.98;;;10.32;;
73168;SDS011;61379;59.732;30.468;2022-10-16T11:42:11;12.82;;;8.65;;
73168;SDS011;61379;59.732;30.468;2022-10-16T11:44:44;10.48;;;9.63;;
73168;SDS011;61379;59.732;30.468;2022-10-16T11:47:19;10.38;;;9.35;;
73168;SDS011;61379;59.732;30.468;2022-10-16T11:49:51;10.15;;;9.25;;
73168;SDS011;61379;59.732;30.468;2022-10-16T11:52:20;8.65;;;8.02;;
73168;SDS011;61379;59.732;30.468;2022-10-16T11:54:50;9.48;;;8.68;;
73168;SDS011;61379;59.732;30.468;2022-10-16T11:57:19;9.73;;;8.82;;
73168;SDS011;61379;59.732;30.468;2022-10-16T11:59:47;9.55;;;8.75;;
73168;SDS011;61379;59.732;30.468;2022-10-16T12:02:27;10.63;;;8.82;;
73168;SDS011;61379;59.732;30.468;2022-10-16T12:04:58;10.13;;;8.68;;
73168;SDS011;61379;59.732;30.468;2022-10-16T12:07:32;8.38;;;7.72;;
73168;SDS011;61379;59.732;30.468;2022-10-16T12:10:09;9.32;;;8.32;;
73168;SDS011;61379;59.732;30.468;2022-10-16T12:12:37;9.85;;;8.95;;
73168;SDS011;61379;59.732;30.468;2022-10-16T12:15:17;10.25;;;9.10;;
73168;SDS011;61379;59.732;30.468;2022-10-16T12:17:44;8.98;;;8.10;;
73168;SDS011;61379;59.732;30.468;2022-10-16T12:20:26;9.63;;;8.27;;
73168;SDS011;61379;59.732;30.468;2022-10-16T12:22:53;9.48;;;8.65;;
73168;SDS011;61379;59.732;30.468;2022-10-16T12:25:21;8.48;;;7.72;;
73168;SDS011;61379;59.732;30.468;2022-10-16T12:27:54;9.23;;;8.35;;
73168;SDS011;61379;59.732;30.468;2022-10-16T12:30:22;9.65;;;8.48;;
73168;SDS011;61379;59.732;30.468;2022-10-16T12:32:53;8.60;;;7.80;;
73168;SDS011;61379;59.732;30.468;2022-10-16T12:35:20;10.45;;;9.48;;
73168;SDS011;61379;59.732;30.468;2022-10-16T12:37:50;8.52;;;7.72;;
73168;SDS011;61379;59.732;30.468;2022-10-16T12:40:23;10.02;;;8.48;;
73168;SDS011;61379;59.732;30.468;2022-10-16T12:42:51;9.23;;;8.43;;
73168;SDS011;61379;59.732;30.468;2022-10-16T12:45:25;8.20;;;7.40;;
73168;SDS011;61379;59.732;30.468;2022-10-16T12:47:52;9.30;;;7.35;;
73168;SDS011;61379;59.732;30.468;2022-10-16T12:50:24;6.00;;;5.47;;
73168;SDS011;61379;59.732;30.468;2022-10-16T12:52:52;10.90;;;7.43;;
73168;SDS011;61379;59.732;30.468;2022-10-16T12:55:20;10.18;;;7.28;;
73168;SDS011;61379;59.732;30.468;2022-10-16T12:57:52;9.18;;;7.72;;
73168;SDS011;61379;59.732;30.468;2022-10-16T13:00:22;9.77;;;8.77;;
73168;SDS011;61379;59.732;30.468;2022-10-16T13:03:07;11.70;;;7.80;;
73168;SDS011;61379;59.732;30.468;2022-10-16T13:05:46;11.18;;;9.65;;
73168;SDS011;61379;59.732;30.468;2022-10-16T13:08:23;13.02;;;9.07;;
73168;SDS011;61379;59.732;30.468;2022-10-16T13:10:54;12.68;;;7.43;;
73168;SDS011;61379;59.732;30.468;2022-10-16T13:13:46;10.07;;;9.02;;
73168;SDS011;61379;59.732;30.468;2022-10-16T13:18:45;9.80;;;8.15;;
73168;SDS011;61379;59.732;30.468;2022-10-16T13:21:20;9.43;;;8.07;;
73168;SDS011;61379;59.732;30.468;2022-10-16T13:23:54;13.52;;;8.88;;
73168;SDS011;61379;59.732;30.468;2022-10-16T13:26:27;16.05;;;9.30;;
73168;SDS011;61379;59.732;30.468;2022-10-16T13:28:58;10.10;;;8.80;;
73168;SDS011;61379;59.732;30.468;2022-10-16T13:31:25;17.27;;;10.13;;
73168;SDS011;61379;59.732;30.468;2022-10-16T13:33:53;10.27;;;9.02;;
73168;SDS011;61379;59.732;30.468;2022-10-16T13:36:22;12.68;;;9.50;;
73168;SDS011;61379;59.732;30.468;2022-10-16T13:38:50;12.63;;;9.70;;
73168;SDS011;61379;59.732;30.468;2022-10-16T13:41:27;11.48;;;9.25;;
73168;SDS011;61379;59.732;30.468;2022-10-16T13:43:53;17.65;;;11.73;;
73168;SDS011;61379;59.732;30.468;2022-10-16T13:46:22;15.88;;;9.70;;
73168;SDS011;61379;59.732;30.468;2022-10-16T13:48:56;15.93;;;11.02;;
73168;SDS011;61379;59.732;30.468;2022-10-16T13:51:23;13.10;;;10.90;;
73168;SDS011;61379;59.732;30.468;2022-10-16T13:53:49;13.20;;;10.85;;
73168;SDS011;61379;59.732;30.468;2022-10-16T13:56:20;14.95;;;10.57;;
73168;SDS011;61379;59.732;30.468;2022-10-16T13:58:58;15.80;;;11.00;;
73168;SDS011;61379;59.732;30.468;2022-10-16T14:01:26;10.10;;;9.13;;
73168;SDS011;61379;59.732;30.468;2022-10-16T14:03:59;16.02;;;11.52;;
73168;SDS011;61379;59.732;30.468;2022-10-16T14:06:27;13.82;;;10.18;;
73168;SDS011;61379;59.732;30.468;2022-10-16T14:08:55;11.75;;;9.13;;
73168;SDS011;61379;59.732;30.468;2022-10-16T14:11:23;13.82;;;10.07;;
73168;SDS011;61379;59.732;30.468;2022-10-16T14:13:50;15.05;;;12.13;;
73168;SDS011;61379;59.732;30.468;2022-10-16T14:16:20;17.58;;;11.88;;
73168;SDS011;61379;59.732;30.468;2022-10-16T14:18:49;10.82;;;9.45;;
73168;SDS011;61379;59.732;30.468;2022-10-16T14:21:18;19.30;;;11.18;;
73168;SDS011;61379;59.732;30.468;2022-10-16T14:23:45;18.67;;;9.95;;
73168;SDS011;61379;59.732;30.468;2022-10-16T14:26:12;14.75;;;11.18;;
73168;SDS011;61379;59.732;30.468;2022-10-16T14:28:39;17.20;;;11.32;;
73168;SDS011;61379;59.732;30.468;2022-10-16T14:31:19;17.70;;;10.57;;
73168;SDS011;61379;59.732;30.468;2022-10-16T14:33:51;19.35;;;11.35;;
73168;SDS011;61379;59.732;30.468;2022-10-16T14:36:17;15.50;;;10.93;;
73168;SDS011;61379;59.732;30.468;2022-10-16T14:38:48;15.95;;;11.25;;